Time;durP1;ratioP1;P1;durP2;ratioP2;P2;SDS_P1;SDS_P2;PMS_P1;PMS_P2;Temp;Humidity;BMP_temperature;BMP_pressure;BME280_temperature;BME280_humidity;BME280_pressure;Samples;Min_cycle;Max_cycle;Signal;HPM_P1;HPM_P2
2023/03/23 00:01:32;;;;;;;9.20;5.90;;;10.40;99.90;;;;;;5042533;28;20470;-61
2023/03/23 00:03:59;;;;;;;6.75;5.55;;;10.50;99.90;;;;;;5041352;28;20414;-61
2023/03/23 00:06:27;;;;;;;9.10;5.10;;;10.50;99.90;;;;;;5043620;28;20494;-61
2023/03/23 00:08:59;;;;;;;9.38;5.35;;;10.50;99.90;;;;;;5045062;28;20415;-61
2023/03/23 00:11:28;;;;;;;10.33;5.20;;;10.50;99.90;;;;;;5045839;28;20413;-59
2023/03/23 00:14:00;;;;;;;9.25;4.60;;;10.60;99.90;;;;;;5045059;28;20469;-60
2023/03/23 00:16:30;;;;;;;8.27;4.60;;;10.60;99.90;;;;;;5043910;28;20502;-60
2023/03/23 00:18:58;;;;;;;6.07;4.28;;;10.60;99.90;;;;;;5045408;28;20421;-58
2023/03/23 00:21:33;;;;;;;7.93;4.38;;;10.70;99.90;;;;;;5048565;28;20429;-60
2023/03/23 00:24:03;;;;;;;6.07;4.28;;;10.70;99.90;;;;;;5050942;28;20421;-61
2023/03/23 00:26:33;;;;;;;6.60;3.90;;;10.80;99.90;;;;;;5048229;28;20411;-60
2023/03/23 00:29:01;;;;;;;6.38;4.30;;;10.70;99.90;;;;;;5043222;28;20415;-60
2023/03/23 00:31:31;;;;;;;5.43;3.90;;;10.70;99.90;;;;;;5034317;28;20509;-61
2023/03/23 00:34:00;;;;;;;4.75;3.65;;;10.80;99.90;;;;;;5033948;28;20429;-61
2023/03/23 00:36:28;;;;;;;6.40;3.40;;;10.80;99.90;;;;;;5035312;28;20774;-61
2023/03/23 00:38:59;;;;;;;5.50;3.33;;;10.90;99.90;;;;;;5043256;28;20451;-61
2023/03/23 00:41:27;;;;;;;6.30;3.47;;;11.00;99.90;;;;;;5042305;28;20505;-62
2023/03/23 00:43:55;;;;;;;3.95;3.10;;;11.00;99.90;;;;;;5043087;28;20420;-62
2023/03/23 00:46:22;;;;;;;4.78;3.38;;;11.00;99.90;;;;;;5044617;28;20408;-62
2023/03/23 00:48:50;;;;;;;7.57;3.00;;;11.00;99.90;;;;;;5043819;28;20419;-62
2023/03/23 00:51:17;;;;;;;4.53;3.10;;;11.00;99.90;;;;;;5042501;28;20435;-62
2023/03/23 00:53:45;;;;;;;5.07;3.10;;;11.00;99.90;;;;;;5049822;28;20472;-61
2023/03/23 00:56:11;;;;;;;4.43;3.13;;;11.10;99.90;;;;;;5050426;28;20425;-62
2023/03/23 00:58:40;;;;;;;5.20;3.10;;;11.10;99.90;;;;;;5033711;28;20411;-61
2023/03/23 01:01:06;;;;;;;3.58;2.70;;;11.00;99.90;;;;;;5033565;28;20889;-61
2023/03/23 01:03:34;;;;;;;5.63;2.88;;;11.10;99.90;;;;;;5033232;28;20901;-62
2023/03/23 01:06:08;;;;;;;4.80;2.55;;;11.10;99.90;;;;;;5033112;28;20419;-61
2023/03/23 01:08:36;;;;;;;4.13;2.60;;;11.20;99.90;;;;;;5044809;28;20427;-59
2023/03/23 01:11:06;;;;;;;3.80;2.83;;;11.20;99.90;;;;;;5044007;28;20466;-61
2023/03/23 01:13:33;;;;;;;4.30;2.90;;;11.10;99.90;;;;;;5042609;28;20418;-60
2023/03/23 01:16:02;;;;;;;4.18;2.78;;;11.10;99.90;;;;;;5042963;28;20420;-60
2023/03/23 01:18:29;;;;;;;6.65;3.05;;;11.00;99.90;;;;;;5044557;28;20417;-60
2023/03/23 01:20:55;;;;;;;3.95;2.95;;;11.10;99.90;;;;;;5042490;28;20461;-61
2023/03/23 01:23:22;;;;;;;4.47;2.63;;;11.10;99.90;;;;;;5045623;28;20398;-59
2023/03/23 01:25:49;;;;;;;4.05;2.80;;;11.10;99.90;;;;;;5054099;28;20809;-60
2023/03/23 01:28:16;;;;;;;4.88;3.20;;;11.20;99.90;;;;;;5042664;28;20443;-60
2023/03/23 01:30:43;;;;;;;3.70;2.83;;;11.10;99.90;;;;;;5044130;28;20409;-60
2023/03/23 01:33:11;;;;;;;5.07;2.70;;;11.10;99.90;;;;;;5042040;28;20497;-59
2023/03/23 01:35:39;;;;;;;5.43;2.70;;;11.10;99.90;;;;;;5041601;28;20417;-59
2023/03/23 01:38:05;;;;;;;4.73;2.60;;;11.20;99.90;;;;;;5041640;28;20411;-60
2023/03/23 01:40:32;;;;;;;3.72;2.83;;;11.10;99.90;;;;;;5042464;28;20411;-60
2023/03/23 01:42:59;;;;;;;5.25;2.83;;;11.10;99.90;;;;;;5043936;28;20433;-59
2023/03/23 01:45:30;;;;;;;4.53;2.85;;;11.10;99.90;;;;;;5042604;28;20410;-61
2023/03/23 01:48:05;;;;;;;3.85;2.75;;;11.10;99.90;;;;;;5040975;28;20411;-60
2023/03/23 01:50:37;;;;;;;4.77;2.80;;;11.10;99.90;;;;;;5041929;28;20762;-61
2023/03/23 01:53:08;;;;;;;4.13;2.95;;;11.10;99.90;;;;;;5034838;28;20473;-60
2023/03/23 01:55:38;;;;;;;3.17;2.55;;;11.00;99.90;;;;;;5056981;28;20423;-59
2023/03/23 01:58:05;;;;;;;4.32;2.88;;;11.00;99.90;;;;;;5042120;28;20805;-61
2023/03/23 02:00:33;;;;;;;4.05;2.60;;;11.00;99.90;;;;;;5041191;28;20422;-60
2023/03/23 02:03:01;;;;;;;4.78;2.40;;;11.00;99.90;;;;;;5032337;28;20469;-61
2023/03/23 02:05:35;;;;;;;3.33;2.22;;;11.00;99.90;;;;;;5032419;28;20480;-60
2023/03/23 02:08:03;;;;;;;2.70;2.22;;;11.00;99.90;;;;;;5041277;28;20411;-60
2023/03/23 02:10:31;;;;;;;3.95;2.40;;;11.00;99.90;;;;;;5041535;28;20774;-60
2023/03/23 02:12:58;;;;;;;3.53;2.50;;;11.00;99.90;;;;;;5032555;28;20449;-60
2023/03/23 02:15:28;;;;;;;3.50;2.38;;;11.10;99.90;;;;;;5032325;28;20453;-60
2023/03/23 02:18:03;;;;;;;3.88;2.38;;;11.10;99.90;;;;;;5031961;28;20415;-60
2023/03/23 02:20:48;;;;;;;3.70;2.70;;;11.10;99.90;;;;;;5032035;28;20415;-61
2023/03/23 02:23:47;;;;;;;3.63;2.42;;;11.10;99.90;;;;;;5043271;28;20452;-59
2023/03/23 02:26:27;;;;;;;5.05;2.90;;;11.10;99.90;;;;;;5045119;28;20413;-59
2023/03/23 02:29:20;;;;;;;3.83;2.63;;;11.10;99.90;;;;;;5040468;28;20464;-60
2023/03/23 02:32:05;;;;;;;3.65;2.80;;;11.10;99.90;;;;;;5042525;28;20806;-61
2023/03/23 02:34:40;;;;;;;5.07;3.33;;;11.00;99.90;;;;;;5043020;28;20429;-60
2023/03/23 02:37:11;;;;;;;3.92;3.15;;;11.00;99.90;;;;;;5032006;28;20442;-57
2023/03/23 02:39:44;;;;;;;3.85;2.95;;;11.00;99.90;;;;;;5031841;28;20423;-59
2023/03/23 02:42:14;;;;;;;5.25;3.08;;;11.00;99.90;;;;;;5031737;28;20438;-59
2023/03/23 02:44:44;;;;;;;4.32;3.15;;;11.00;99.90;;;;;;5031377;28;20422;-59
2023/03/23 02:47:17;;;;;;;6.10;3.60;;;11.00;99.90;;;;;;5042290;28;20413;-58
2023/03/23 02:49:48;;;;;;;4.93;3.40;;;11.00;99.90;;;;;;5040813;28;20461;-59
2023/03/23 02:52:20;;;;;;;5.07;3.40;;;10.90;99.90;;;;;;5040192;28;20754;-60
2023/03/23 02:54:49;;;;;;;4.20;3.35;;;10.90;99.90;;;;;;5050811;28;20457;-60
2023/03/23 02:57:16;;;;;;;;;;;10.90;99.90;;;;;;5042157;28;20422;-60
2023/03/23 02:59:43;;;;;;;;;;;10.90;99.90;;;;;;5043859;28;20017;-60
2023/03/23 03:02:13;;;;;;;;;;;10.90;99.90;;;;;;5044207;28;19921;-60
2023/03/23 03:04:41;;;;;;;;;;;10.90;99.90;;;;;;5040015;28;19990;-61
2023/03/23 03:07:15;;;;;;;;;;;10.90;99.90;;;;;;5043400;28;20012;-59
2023/03/23 03:09:47;;;;;;;;;;;10.90;99.90;;;;;;5032964;28;19929;-60
2023/03/23 03:12:15;;;;;;;;;;;10.90;99.90;;;;;;5033127;28;19921;-60
2023/03/23 03:14:45;;;;;;;;;;;10.90;99.90;;;;;;5033214;28;20411;-60
2023/03/23 03:17:17;;;;;;;;;;;10.90;99.90;;;;;;5034184;28;19928;-60
2023/03/23 03:19:44;;;;;;;;;;;10.90;99.90;;;;;;5035052;28;20043;-60
2023/03/23 03:22:12;;;;;;;;;;;10.90;99.90;;;;;;5041493;28;19921;-60
2023/03/23 03:24:40;;;;;;;;;;;10.90;99.90;;;;;;5048971;28;19920;-60
2023/03/23 03:27:11;;;;;;;;;;;10.90;99.90;;;;;;5048108;28;19975;-60
2023/03/23 03:29:41;;;;;;;;;;;11.00;99.90;;;;;;5042145;28;19921;-60
2023/03/23 03:32:11;;;;;;;;;;;11.00;99.90;;;;;;5041207;28;20015;-60
2023/03/23 03:34:37;;;;;;;;;;;11.00;99.90;;;;;;5042507;28;20432;-60
2023/03/23 03:37:05;;;;;;;;;;;11.00;99.90;;;;;;5043421;28;19974;-58
2023/03/23 03:39:36;;;;;;;;;;;11.00;99.90;;;;;;5032146;28;19967;-59
2023/03/23 03:42:02;;;;;;;;;;;11.00;99.90;;;;;;5032378;28;19921;-60
2023/03/23 03:44:29;;;;;;;;;;;11.00;99.90;;;;;;5032166;28;19983;-60
2023/03/23 03:46:55;;;;;;;;;;;11.00;99.90;;;;;;5035532;28;19927;-60
2023/03/23 03:49:22;;;;;;;;;;;11.00;99.90;;;;;;5043664;28;19947;-59
2023/03/23 03:51:49;;;;;;;;;;;11.00;99.90;;;;;;5041462;28;20466;-59
2023/03/23 03:54:16;;;;;;;;;;;11.00;99.90;;;;;;5045253;28;19921;-59
2023/03/23 03:56:45;;;;;;;;;;;11.10;99.90;;;;;;5052645;28;19927;-59
2023/03/23 03:59:12;;;;;;;;;;;11.10;99.90;;;;;;5041523;28;19921;-59
2023/03/23 04:01:39;;;;;;;;;;;11.00;99.90;;;;;;5043044;28;19990;-60
2023/03/23 04:04:06;;;;;;;;;;;11.10;99.90;;;;;;5041865;28;19971;-60
2023/03/23 04:06:37;;;;;;;;;;;11.10;99.90;;;;;;5040667;28;19932;-60
2023/03/23 04:09:05;;;;;;;;;;;11.20;99.90;;;;;;5042409;28;20356;-60
2023/03/23 04:11:32;;;;;;;;;;;11.10;99.90;;;;;;5043015;28;20497;-59
2023/03/23 04:14:00;;;;;;;;;;;11.20;99.90;;;;;;5040855;28;20542;-59
2023/03/23 04:16:29;;;;;;;;;;;11.20;99.90;;;;;;5040761;28;20375;-59
2023/03/23 04:18:56;;;;;;;;;;;11.20;99.90;;;;;;5041005;28;19927;-59
2023/03/23 04:21:23;;;;;;;;;;;11.20;99.90;;;;;;5041562;28;20265;-60
2023/03/23 04:23:50;;;;;;;;;;;11.20;99.90;;;;;;5049981;28;19920;-61
2023/03/23 04:26:17;;;;;;;;;;;11.30;99.90;;;;;;5052808;28;19921;-60
2023/03/23 04:28:43;;;;;;;;;;;11.30;99.90;;;;;;5043021;28;20264;-60
2023/03/23 04:31:12;;;;;;;;;;;11.30;99.90;;;;;;5040674;28;19979;-59
2023/03/23 04:33:40;;;;;;;;;;;11.20;99.90;;;;;;5041066;28;20011;-60
2023/03/23 04:36:07;;;;;;;;;;;11.30;99.90;;;;;;5042955;28;19925;-60
2023/03/23 04:38:33;;;;;;;;;;;11.30;99.90;;;;;;5041839;28;19920;-60
2023/03/23 04:41:01;;;;;;;;;;;11.30;99.90;;;;;;5040142;28;19921;-61
2023/03/23 04:43:28;;;;;;;;;;;11.30;99.90;;;;;;5042554;28;19932;-60
2023/03/23 04:45:56;;;;;;;;;;;11.30;99.90;;;;;;5042350;28;19920;-61
2023/03/23 04:48:24;;;;;;;;;;;11.30;99.90;;;;;;5040649;28;19943;-61
2023/03/23 04:50:51;;;;;;;;;;;11.40;99.90;;;;;;5042300;28;19925;-60
2023/03/23 04:53:18;;;;;;;;;;;11.30;99.90;;;;;;5047275;28;20007;-59
2023/03/23 04:55:45;;;;;;;;;;;11.30;99.90;;;;;;5055478;28;19924;-58
2023/03/23 04:58:14;;;;;;;;;;;11.30;99.90;;;;;;5044073;28;19925;-60
2023/03/23 05:00:43;;;;;;;;;;;11.20;99.90;;;;;;5044638;28;20033;-59
2023/03/23 05:03:10;;;;;;;;;;;11.30;99.90;;;;;;5043939;28;19925;-60
2023/03/23 05:05:40;;;;;;;;;;;11.30;99.90;;;;;;5043866;28;19921;-60
2023/03/23 05:08:06;;;;;;;;;;;11.30;99.90;;;;;;5043910;28;19921;-59
2023/03/23 05:10:33;;;;;;;;;;;11.30;99.90;;;;;;5046302;28;19925;-58
2023/03/23 05:12:59;;;;;;;;;;;11.30;99.90;;;;;;5045079;28;19921;-60
2023/03/23 05:15:26;;;;;;;;;;;11.30;99.90;;;;;;5043491;28;20506;-61
2023/03/23 05:17:52;;;;;;;;;;;11.40;99.90;;;;;;5045813;28;19925;-61
2023/03/23 05:20:19;;;;;;;;;;;11.40;99.90;;;;;;5045417;28;20010;-61
2023/03/23 05:22:49;;;;;;;;;;;11.40;99.90;;;;;;5043104;28;19967;-61
2023/03/23 05:25:18;;;;;;;;;;;11.50;99.90;;;;;;5052290;28;19924;-61
2023/03/23 05:27:48;;;;;;;;;;;11.40;99.90;;;;;;5046414;28;19979;-60
2023/03/23 05:30:16;;;;;;;;;;;11.50;99.90;;;;;;5045030;28;19932;-60
2023/03/23 05:32:44;;;;;;;;;;;11.50;99.90;;;;;;5043301;28;19925;-61
2023/03/23 05:35:12;;;;;;;;;;;11.50;99.90;;;;;;5045018;28;19921;-61
2023/03/23 05:37:39;;;;;;;;;;;11.50;99.90;;;;;;5046129;28;19932;-59
2023/03/23 05:40:08;;;;;;;;;;;11.50;99.90;;;;;;5044077;28;20353;-60
2023/03/23 05:42:35;;;;;;;;;;;11.40;99.90;;;;;;5043431;28;19921;-61
2023/03/23 05:45:02;;;;;;;;;;;11.50;99.90;;;;;;5043533;28;19927;-60
2023/03/23 05:47:28;;;;;;;;;;;11.50;99.90;;;;;;5044162;28;19925;-60
2023/03/23 05:49:55;;;;;;;;;;;11.60;99.90;;;;;;5045720;28;19928;-60
2023/03/23 05:52:23;;;;;;;;;;;11.50;99.90;;;;;;5042190;28;19975;-60
2023/03/23 05:54:50;;;;;;;;;;;11.50;99.90;;;;;;5053660;28;20413;-62
2023/03/23 05:57:18;;;;;;;;;;;11.50;99.90;;;;;;5055308;28;20355;-63
2023/03/23 05:59:45;;;;;;;;;;;11.50;99.90;;;;;;5054139;28;19986;-61
2023/03/23 06:02:13;;;;;;;;;;;11.50;99.90;;;;;;5046789;28;20367;-62
2023/03/23 06:04:40;;;;;;;;;;;11.50;99.90;;;;;;5043419;28;19924;-62
2023/03/23 06:07:07;;;;;;;;;;;11.60;99.90;;;;;;5045485;28;19921;-62
2023/03/23 06:09:34;;;;;;;;;;;11.60;99.90;;;;;;5046370;28;19921;-62
2023/03/23 06:12:00;;;;;;;;;;;11.60;99.90;;;;;;5046279;28;19921;-63
2023/03/23 06:14:28;;;;;;;;;;;11.50;99.90;;;;;;5042083;28;19967;-62
2023/03/23 06:16:54;;;;;;;;;;;11.50;99.90;;;;;;5043360;28;19924;-64
2023/03/23 06:19:22;;;;;;;;;;;11.60;99.90;;;;;;5045247;28;20283;-62
2023/03/23 06:21:49;;;;;;;;;;;11.60;99.90;;;;;;5042849;28;19921;-63
2023/03/23 06:24:16;;;;;;;;;;;11.60;99.90;;;;;;5046233;28;20285;-62
2023/03/23 06:26:43;;;;;;;;;;;11.60;99.90;;;;;;5053230;28;19921;-63
2023/03/23 06:29:11;;;;;;;;;;;11.60;99.90;;;;;;5043218;28;19968;-63
2023/03/23 06:31:40;;;;;;;;;;;11.70;99.90;;;;;;5043942;28;19959;-60
2023/03/23 06:34:08;;;;;;;;;;;11.70;99.90;;;;;;5053329;28;19920;-63
2023/03/23 06:36:35;;;;;;;;;;;11.70;99.90;;;;;;5047249;28;19921;-64
2023/03/23 06:39:04;;;;;;;;;;;11.70;99.90;;;;;;5043559;28;20363;-65
2023/03/23 06:41:30;;;;;;;;;;;11.60;99.90;;;;;;5043882;28;19971;-62
2023/03/23 06:43:57;;;;;;;;;;;11.70;99.90;;;;;;5032905;28;19925;-65
2023/03/23 06:46:23;;;;;;;;;;;11.70;99.90;;;;;;5033112;28;19967;-63
2023/03/23 06:48:51;;;;;;;;;;;11.80;99.90;;;;;;5032967;28;20339;-64
2023/03/23 06:51:18;;;;;;;;;;;11.80;99.90;;;;;;5033173;28;20311;-64
2023/03/23 06:53:45;;;;;;;;;;;11.70;99.90;;;;;;5050901;28;20313;-64
2023/03/23 06:56:12;;;;;;;;;;;11.80;99.90;;;;;;5048088;28;19972;-63
2023/03/23 06:58:39;;;;;;;;;;;11.80;99.90;;;;;;5043035;28;20343;-61
2023/03/23 07:01:06;;;;;;;;;;;11.80;99.90;;;;;;5041598;28;19925;-62
2023/03/23 07:03:33;;;;;;;;;;;11.90;99.90;;;;;;5042630;28;19920;-62
2023/03/23 07:06:01;;;;;;;;;;;11.90;99.90;;;;;;5043642;28;19962;-62
2023/03/23 07:08:28;;;;;;;;;;;11.90;99.90;;;;;;5042498;28;20023;-60
2023/03/23 07:10:55;;;;;;;;;;;11.90;99.90;;;;;;5044156;28;19920;-60
2023/03/23 07:13:21;;;;;;;;;;;11.90;99.90;;;;;;5045808;28;20468;-61
2023/03/23 07:15:50;;;;;;;;;;;12.00;99.90;;;;;;5045534;28;20453;-61
2023/03/23 07:18:16;;;;;;;;;;;12.10;92.60;;;;;;5050931;28;19927;-62
2023/03/23 07:20:43;;;;;;;;;;;12.00;91.70;;;;;;5050964;28;19932;-62
2023/03/23 07:23:11;;;;;;;;;;;12.00;95.40;;;;;;5044396;28;19921;-62
2023/03/23 07:25:38;;;;;;;;;;;12.00;87.10;;;;;;5049837;28;19921;-67
2023/03/23 07:28:05;;;;;;;;;;;12.00;78.70;;;;;;5041957;28;19925;-61
2023/03/23 07:30:31;;;;;;;;;;;12.00;80.90;;;;;;5043856;28;20308;-62
2023/03/23 07:32:58;;;;;;;;;;;12.10;58.60;;;;;;5051453;28;19950;-62
2023/03/23 07:35:25;;;;;;;;;;;12.10;50.70;;;;;;5051142;28;19925;-62
2023/03/23 07:37:53;;;;;;;;;;;12.20;57.30;;;;;;5038443;28;20376;-62
2023/03/23 07:40:21;;;;;;;;;;;12.30;34.60;;;;;;5042394;28;19921;-61
2023/03/23 07:42:52;;;;;;;;;;;12.30;36.40;;;;;;5039196;28;19927;-62
2023/03/23 07:45:18;;;;;;;;;;;12.30;36.90;;;;;;5044917;28;20327;-62
2023/03/23 07:47:45;;;;;;;;;;;12.30;35.40;;;;;;5055378;28;19966;-61
2023/03/23 07:50:12;;;;;;;;;;;12.30;35.80;;;;;;5042206;28;19951;-62
2023/03/23 07:52:39;;;;;;;;;;;12.30;34.70;;;;;;5046874;28;19921;-60
2023/03/23 07:55:06;;;;;;;;;;;12.30;40.60;;;;;;5052665;28;19928;-62
2023/03/23 07:57:34;;;;;;;;;;;12.30;28.90;;;;;;5045778;28;19921;-61
2023/03/23 08:00:03;;;;;;;;;;;12.30;21.30;;;;;;5042738;28;19920;-59
2023/03/23 08:02:31;;;;;;;;;;;12.30;25.60;;;;;;5044529;28;19924;-60
2023/03/23 08:05:00;;;;;;;;;;;12.30;21.20;;;;;;5047390;28;19920;-60
2023/03/23 08:07:27;;;;;;;;;;;12.30;22.70;;;;;;5041188;28;19921;-58
2023/03/23 08:09:53;;;;;;;;;;;12.40;13.10;;;;;;5039334;28;19925;-61
2023/03/23 08:12:20;;;;;;;;;;;12.40;18.00;;;;;;5044088;28;19967;-61
2023/03/23 08:14:48;;;;;;;;;;;12.50;11.30;;;;;;5048317;28;19921;-61
2023/03/23 08:17:15;;;;;;;;;;;12.40;1.00;;;;;;5040180;28;20103;-62
2023/03/23 08:19:42;;;;;;;;;;;12.40;7.80;;;;;;5041226;28;20031;-60
2023/03/23 08:22:09;;;;;;;;;;;12.50;1.00;;;;;;5042300;28;19929;-64
2023/03/23 08:24:36;;;;;;;;;;;12.40;1.00;;;;;;5044869;28;20308;-63
2023/03/23 08:27:02;;;;;;;;;;;12.50;1.00;;;;;;5053248;28;19921;-62
2023/03/23 08:29:29;;;;;;;;;;;12.50;1.00;;;;;;5046451;28;19921;-62
2023/03/23 08:31:57;;;;;;;;;;;12.50;1.00;;;;;;5044619;28;19987;-62
2023/03/23 08:34:24;;;;;;;;;;;12.60;1.00;;;;;;5049250;28;19921;-61
2023/03/23 08:36:51;;;;;;;;;;;12.70;1.00;;;;;;5050690;28;19921;-60
2023/03/23 08:39:18;;;;;;;;;;;12.70;1.00;;;;;;5047904;28;19964;-62
2023/03/23 08:41:45;;;;;;;;;;;12.80;1.00;;;;;;5056125;28;20007;-61
2023/03/23 08:44:12;;;;;;;;;;;12.80;1.00;;;;;;5043841;28;19921;-60
2023/03/23 08:46:39;;;;;;;;;;;12.80;1.00;;;;;;5045791;28;19970;-58
2023/03/23 08:49:07;;;;;;;;;;;12.90;1.00;;;;;;5045610;28;20015;-61
2023/03/23 08:51:35;;;;;;;;;;;12.90;1.00;;;;;;5046046;28;19925;-61
2023/03/23 08:54:02;;;;;;;;;;;12.90;1.00;;;;;;5052614;28;19920;-62
2023/03/23 08:56:28;;;;;;;;;;;13.00;1.00;;;;;;5056705;28;19921;-61
2023/03/23 08:58:55;;;;;;;;;;;13.00;1.00;;;;;;5047802;28;19924;-64
2023/03/23 09:01:21;;;;;;;;;;;13.00;1.00;;;;;;5052070;28;19987;-63
2023/03/23 09:03:48;;;;;;;;;;;13.10;1.00;;;;;;5046653;28;20478;-63
2023/03/23 09:06:16;;;;;;;;;;;13.10;1.00;;;;;;5043014;28;19927;-63
2023/03/23 09:08:42;;;;;;;;;;;13.30;1.00;;;;;;5043485;28;20349;-65
2023/03/23 09:11:10;;;;;;;;;;;13.30;1.00;;;;;;5043016;28;19921;-63
2023/03/23 09:13:37;;;;;;;;;;;13.10;1.00;;;;;;5044183;28;20015;-63
2023/03/23 09:16:04;;;;;;;;;;;13.30;1.00;;;;;;5041827;28;20399;-63
2023/03/23 09:18:30;;;;;;;;;;;13.30;1.00;;;;;;5045381;28;20024;-63
2023/03/23 09:20:58;;;;;;;;;;;13.20;1.00;;;;;;5045353;28;19966;-64
2023/03/23 09:23:25;;;;;;;;;;;13.30;1.00;;;;;;5045594;28;19921;-66
2023/03/23 09:25:52;;;;;;;;;;;13.30;1.00;;;;;;5056603;28;19924;-64
2023/03/23 09:28:19;;;;;;;;;;;13.10;1.00;;;;;;5047470;28;19921;-61
2023/03/23 09:30:47;;;;;;;;;;;13.10;1.00;;;;;;5049922;28;19929;-61
2023/03/23 09:33:14;;;;;;;;;;;13.30;1.00;;;;;;5043174;28;19921;-61
2023/03/23 09:35:41;;;;;;;;;;;13.30;1.00;;;;;;5045711;28;19921;-63
2023/03/23 09:38:09;;;;;;;;;;;13.10;1.00;;;;;;5052021;28;20012;-62
2023/03/23 09:40:43;;;;;;;;;;;13.30;1.00;;;;;;5048715;28;19971;-62
2023/03/23 09:43:30;;;;;;;;;;;13.20;99.90;;;;;;5043254;28;19921;-64
2023/03/23 09:46:12;;;;;;;;;;;13.30;99.90;;;;;;5044728;28;20039;-66
2023/03/23 09:48:43;;;;;;;;;;;13.10;99.90;;;;;;5045108;28;19925;-63
2023/03/23 09:51:14;;;;;;;;;;;13.30;99.90;;;;;;5042643;28;19921;-64
2023/03/23 09:53:43;;;;;;;;;;;13.30;99.90;;;;;;5049830;28;19928;-64
2023/03/23 09:56:12;;;;;;;;;;;13.40;1.30;;;;;;5050943;28;19925;-62
2023/03/23 09:58:42;;;;;;;;;;;13.20;1.00;;;;;;5053869;28;19928;-62
2023/03/23 10:01:11;;;;;;;;;;;13.20;1.00;;;;;;5046685;28;19926;-63
2023/03/23 10:03:38;;;;;;;;;;;13.20;99.90;;;;;;5058187;28;19928;-65
2023/03/23 10:06:05;;;;;;;;;;;13.20;3.40;;;;;;5043803;28;19928;-63
2023/03/23 10:08:34;;;;;;;;;;;13.30;99.90;;;;;;5043567;28;20364;-63
2023/03/23 10:11:02;;;;;;;;;;;13.30;99.90;;;;;;5042144;28;19944;-62
2023/03/23 10:13:40;;;;;;;;;;;13.30;63.40;;;;;;5042517;28;19925;-63
2023/03/23 10:16:09;;;;;;;;;;;13.10;99.90;;;;;;5042757;28;20441;-63
2023/03/23 10:18:38;;;;;;;;;;;12.90;1.00;;;;;;5056224;28;20330;-62
2023/03/23 10:21:05;;;;;;;;;;;12.90;1.00;;;;;;5044187;28;19996;-63
2023/03/23 10:23:42;;;;;;;;;;;12.90;1.00;;;;;;5048324;28;20009;-62
2023/03/23 10:26:12;;;;;;;;;;;12.80;1.00;;;;;;5050889;28;19921;-62
2023/03/23 10:28:44;;;;;;;;;;;12.20;48.00;;;;;;5042248;28;20433;-62
2023/03/23 10:31:12;;;;;;;;;;;11.80;99.90;;;;;;5042755;28;19928;-62
2023/03/23 10:33:40;;;;;;;;;;;11.60;99.90;;;;;;5043753;28;19920;-62
2023/03/23 10:36:10;;;;;;;;;;;11.40;99.90;;;;;;5042614;28;19968;-61
2023/03/23 10:38:38;;;;;;;;;;;11.30;99.90;;;;;;5053371;28;19989;-62
2023/03/23 10:41:08;;;;;;;;;;;11.20;99.90;;;;;;5042629;28;19928;-62
2023/03/23 10:43:35;;;;;;;;;;;11.30;99.90;;;;;;5044664;28;19928;-61
2023/03/23 10:46:06;;;;;;;;;;;11.10;99.90;;;;;;5042843;28;19931;-60
2023/03/23 10:48:36;;;;;;;;;;;11.20;99.90;;;;;;5043020;28;20398;-62
2023/03/23 10:51:04;;;;;;;;;;;11.30;99.90;;;;;;5042886;28;19924;-61
2023/03/23 10:53:33;;;;;;;;;;;11.40;99.90;;;;;;5045047;28;20553;-61
2023/03/23 10:56:00;;;;;;;;;;;11.50;99.90;;;;;;5057163;28;20007;-61
2023/03/23 10:58:29;;;;;;;;;;;11.50;99.90;;;;;;5049364;28;20379;-61
2023/03/23 11:00:56;;;;;;;;;;;11.30;99.90;;;;;;5041894;28;19920;-62
2023/03/23 11:03:32;;;;;;;;;;;11.30;99.90;;;;;;5041006;28;19921;-61
2023/03/23 11:06:00;;;;;;;;;;;11.40;99.90;;;;;;5032144;28;19976;-61
2023/03/23 11:08:29;;;;;;;;;;;11.50;99.90;;;;;;5031991;28;19924;-62
2023/03/23 11:10:56;;;;;;;;;;;11.60;99.90;;;;;;5031818;28;20016;-63
2023/03/23 11:13:24;;;;;;;;;;;11.50;99.90;;;;;;5032232;28;19971;-65
2023/03/23 11:15:51;;;;;;;;;;;11.50;99.90;;;;;;5040414;28;20020;-64
2023/03/23 11:18:20;;;;;;;;;;;11.20;99.90;;;;;;5047418;28;20367;-62
2023/03/23 11:20:50;;;;;;;;;;;11.20;99.90;;;;;;5043018;28;19920;-62
2023/03/23 11:23:20;;;;;;;;;;;11.20;99.90;;;;;;5043180;28;20018;-65
2023/03/23 11:25:57;;;;;;;;;;;11.20;99.90;;;;;;5057401;28;19998;-60
2023/03/23 11:28:27;;;;;;;;;;;11.20;99.90;;;;;;5040610;28;20027;-61
2023/03/23 11:30:54;;;;;;;;;;;10.90;99.90;;;;;;5042179;28;19928;-60
2023/03/23 11:33:20;;;;;;;;;;;11.00;99.90;;;;;;5042468;28;19928;-60
2023/03/23 11:35:48;;;;;;;;;;;10.90;99.90;;;;;;5038939;28;19921;-61
2023/03/23 11:38:17;;;;;;;;;;;10.90;99.90;;;;;;5041328;28;19921;-60
2023/03/23 11:40:45;;;;;;;;;;;10.90;99.90;;;;;;5052266;28;19928;-61
2023/03/23 11:43:14;;;;;;;;;;;11.00;99.90;;;;;;5042621;28;20298;-60
2023/03/23 11:45:46;;;;;;;;;;;11.20;99.90;;;;;;5051138;28;19921;-61
2023/03/23 11:48:15;;;;;;;;;;;11.00;99.90;;;;;;5041936;28;19921;-61
2023/03/23 11:50:48;;;;;;;;;;;11.10;99.90;;;;;;5043423;28;19927;-61
2023/03/23 11:53:19;;;;;;;;;;;11.00;99.90;;;;;;5042772;28;20347;-61
2023/03/23 11:55:55;;;;;;;;;;;11.00;99.90;;;;;;5052887;28;20390;-61
2023/03/23 11:58:21;;;;;;;;;;;10.80;99.90;;;;;;5050338;28;20078;-61
2023/03/23 12:00:52;;;;;;;;;;;10.50;99.90;;;;;;5051615;28;20353;-60
2023/03/23 12:03:33;;;;;;;;;;;10.40;99.90;;;;;;5044505;28;20007;-61
2023/03/23 12:06:03;;;;;;;;;;;10.40;99.90;;;;;;5043729;28;19990;-63
2023/03/23 12:08:41;;;;;;;;;;;10.30;99.90;;;;;;5046611;28;20007;-63
2023/03/23 12:11:14;;;;;;;;;;;10.60;99.90;;;;;;5035468;28;19944;-63
2023/03/23 12:13:52;;;;;;;;;;;10.80;99.90;;;;;;5035766;28;19921;-62
2023/03/23 12:16:24;;;;;;;;;;;11.10;99.90;;;;;;5035121;28;19921;-62
2023/03/23 12:18:55;;;;;;;;;;;11.10;99.90;;;;;;5056189;28;19921;-63
2023/03/23 12:21:27;;;;;;;;;;;11.20;99.90;;;;;;5047304;28;19925;-63
2023/03/23 12:23:58;;;;;;;;;;;11.20;99.90;;;;;;5046257;28;19924;-62
2023/03/23 12:26:26;;;;;;;;;;;11.10;99.90;;;;;;5047962;28;20458;-62
2023/03/23 12:29:04;;;;;;;;;;;10.90;99.90;;;;;;5047580;28;20020;-61
2023/03/23 12:31:36;;;;;;;;;;;10.60;99.90;;;;;;5036323;28;20019;-62
2023/03/23 12:34:07;;;;;;;;;;;10.70;99.90;;;;;;5036958;28;19967;-62
2023/03/23 12:36:40;;;;;;;;;;;10.70;99.90;;;;;;5045389;28;20368;-62
2023/03/23 12:39:15;;;;;;;;;;;10.80;99.90;;;;;;5054764;28;20371;-62
2023/03/23 12:41:44;;;;;;;;;;;11.00;99.90;;;;;;5048617;28;20291;-62
2023/03/23 12:44:13;;;;;;;;;;;10.80;99.90;;;;;;5050727;28;20268;-62
2023/03/23 12:46:47;;;;;;;;;;;10.70;99.90;;;;;;5046991;28;20007;-62
2023/03/23 12:49:17;;;;;;;;;;;10.80;99.90;;;;;;5051106;28;20390;-62
2023/03/23 12:51:46;;;;;;;;;;;10.80;99.90;;;;;;5064466;28;20005;-62
2023/03/23 12:54:17;;;;;;;;;;;10.80;99.90;;;;;;5053715;28;19927;-62
2023/03/23 12:56:49;;;;;;;;;;;10.90;99.90;;;;;;5063015;28;19964;-60
2023/03/23 12:59:20;;;;;;;;;;;10.80;99.90;;;;;;5063261;28;19927;-61
2023/03/23 13:01:48;;;;;;;;;;;11.00;99.90;;;;;;5046681;28;19920;-61
2023/03/23 13:04:16;;;;;;;;;;;11.10;99.90;;;;;;5043816;28;19924;-62
2023/03/23 13:06:44;;;;;;;;;;;10.90;99.90;;;;;;5042536;28;19975;-61
2023/03/23 13:09:15;;;;;;;;;;;11.00;99.90;;;;;;5043236;28;19928;-62
2023/03/23 13:11:43;;;;;;;;;;;11.00;99.90;;;;;;5042378;28;19967;-60
2023/03/23 13:14:16;;;;;;;;;;;11.00;99.90;;;;;;5044843;28;19921;-59
2023/03/23 13:16:47;;;;;;;;;;;11.00;99.90;;;;;;5042778;28;19971;-61
2023/03/23 13:19:17;;;;;;;;;;;11.10;99.90;;;;;;5048524;28;19928;-61
2023/03/23 13:21:44;;;;;;;;;;;11.20;99.90;;;;;;5050005;28;19928;-61
2023/03/23 13:24:12;;;;;;;;;;;11.30;99.90;;;;;;5050392;28;19924;-61
2023/03/23 13:26:41;;;;;;;;;;;11.30;99.90;;;;;;5056665;28;19921;-63
2023/03/23 13:29:11;;;;;;;;;;;11.40;99.90;;;;;;5046332;28;19975;-62
2023/03/23 13:31:39;;;;;;;;;;;11.30;99.90;;;;;;5042674;28;20366;-62
2023/03/23 13:34:07;;;;;;;;;;;11.50;99.90;;;;;;5043726;28;19982;-63
2023/03/23 13:36:36;;;;;;;;;;;11.50;99.90;;;;;;5044451;28;19927;-62
2023/03/23 13:39:03;;;;;;;;;;;11.70;99.90;;;;;;5042698;28;19975;-60
2023/03/23 13:41:31;;;;;;;;;;;11.80;99.90;;;;;;5047799;28;20357;-60
2023/03/23 13:44:18;;;;;;;;;;;11.80;99.90;;;;;;5047172;28;19925;-60
2023/03/23 13:46:54;;;;;;;;;;;11.90;99.90;;;;;;5041186;28;19921;-62
2023/03/23 13:49:22;;;;;;;;;;;12.00;99.90;;;;;;5043004;28;20067;-61
2023/03/23 13:51:54;;;;;;;;;;;12.20;99.90;;;;;;5043648;28;19924;-62
2023/03/23 13:54:24;;;;;;;;;;;12.30;99.90;;;;;;5053537;28;19932;-61
2023/03/23 13:56:54;;;;;;;;;;;12.30;99.90;;;;;;5050194;28;19924;-60
2023/03/23 13:59:32;;;;;;;;;;;12.00;99.90;;;;;;5042520;28;19925;-63
2023/03/23 14:02:19;;;;;;;;;;;11.90;99.90;;;;;;5041976;28;19929;-63
2023/03/23 14:04:48;;;;;;;;;;;12.10;99.90;;;;;;5032784;28;20015;-65
2023/03/23 14:07:18;;;;;;;;;;;12.30;99.90;;;;;;5033486;28;19925;-66
2023/03/23 14:09:47;;;;;;;;;;;12.20;99.90;;;;;;5033109;28;19952;-66